Time;durP1;ratioP1;P1;durP2;ratioP2;P2;SDS_P1;SDS_P2;PMS_P1;PMS_P2;Temp;Humidity;BMP_temperature;BMP_pressure;BME280_temperature;BME280_humidity;BME280_pressure;Samples;Min_cycle;Max_cycle;Signal;HPM_P1;HPM_P2
2022/09/20 00:00:17;;;;;;;0.40;0.10;;;;;;;;;;4165866;28;20049;-48
2022/09/20 00:02:18;;;;;;;0.38;0.17;;;;;;;;;;4163359;28;20488;-48
2022/09/20 00:04:19;;;;;;;0.10;0.10;;;;;;;;;;4165542;28;20068;-49
2022/09/20 00:06:23;;;;;;;0.00;0.00;;;;;;;;;;4165798;28;20065;-48
2022/09/20 00:08:24;;;;;;;0.30;0.20;;;;;;;;;;4165953;28;20099;-48
2022/09/20 00:10:26;;;;;;;0.10;0.10;;;;;;;;;;4165756;28;20057;-48
2022/09/20 00:12:27;;;;;;;0.08;0.08;;;;;;;;;;4165279;28;20144;-48
2022/09/20 00:14:29;;;;;;;0.00;0.00;;;;;;;;;;4155385;28;20058;-48
2022/09/20 00:16:33;;;;;;;0.10;0.10;;;;;;;;;;4162614;28;20572;-50
2022/09/20 00:18:35;;;;;;;0.30;0.10;;;;;;;;;;4157135;28;20066;-48
2022/09/20 00:20:44;;;;;;;0.30;0.30;;;;;;;;;;4147417;28;20447;-49
2022/09/20 00:22:48;;;;;;;0.75;0.20;;;;;;;;;;4150978;28;20053;-48
2022/09/20 00:24:49;;;;;;;0.43;0.10;;;;;;;;;;4162218;28;20065;-47
2022/09/20 00:26:50;;;;;;;1.25;0.20;;;;;;;;;;4163704;28;20127;-48
2022/09/20 00:28:52;;;;;;;0.20;0.10;;;;;;;;;;4163021;28;20393;-48
2022/09/20 00:30:54;;;;;;;0.10;0.10;;;;;;;;;;4163047;28;20390;-50
2022/09/20 00:32:55;;;;;;;0.10;0.10;;;;;;;;;;4162817;28;20057;-49
2022/09/20 00:35:12;;;;;;;0.10;0.10;;;;;;;;;;4163226;28;20532;-48
2022/09/20 00:37:13;;;;;;;0.10;0.10;;;;;;;;;;4162268;28;20068;-47
2022/09/20 00:39:15;;;;;;;0.15;0.10;;;;;;;;;;4163674;28;20054;-48
2022/09/20 00:41:16;;;;;;;0.65;0.15;;;;;;;;;;4162119;28;20057;-49
2022/09/20 00:43:17;;;;;;;0.20;0.20;;;;;;;;;;4161225;28;20053;-47
2022/09/20 00:45:23;;;;;;;0.40;0.20;;;;;;;;;;4162875;28;20115;-47
2022/09/20 00:47:41;;;;;;;0.55;0.28;;;;;;;;;;4162536;28;20125;-49
2022/09/20 00:49:42;;;;;;;0.15;0.10;;;;;;;;;;4162828;28;20103;-47
2022/09/20 00:51:49;;;;;;;0.13;0.08;;;;;;;;;;4163107;28;20550;-48
2022/09/20 00:53:52;;;;;;;0.43;0.10;;;;;;;;;;4162532;28;20111;-48
2022/09/20 00:55:55;;;;;;;0.10;0.10;;;;;;;;;;4163303;28;20421;-49
2022/09/20 00:57:56;;;;;;;0.22;0.15;;;;;;;;;;4161354;28;20061;-48
2022/09/20 00:59:57;;;;;;;0.50;0.10;;;;;;;;;;4163438;28;20053;-49
2022/09/20 01:02:22;;;;;;;0.10;0.10;;;;;;;;;;4161857;28;20171;-48
2022/09/20 01:04:26;;;;;;;0.10;0.10;;;;;;;;;;4162251;28;20587;-49
2022/09/20 01:06:27;;;;;;;1.15;0.10;;;;;;;;;;4160948;28;20107;-47
2022/09/20 01:08:29;;;;;;;0.10;0.10;;;;;;;;;;4164886;28;20057;-47
2022/09/20 01:10:31;;;;;;;0.20;0.20;;;;;;;;;;4164849;28;20246;-47
2022/09/20 01:12:34;;;;;;;0.20;0.10;;;;;;;;;;4163367;28;20560;-46
2022/09/20 01:14:35;;;;;;;0.10;0.10;;;;;;;;;;4164869;28;20454;-48
2022/09/20 01:16:36;;;;;;;0.10;0.10;;;;;;;;;;4164681;28;20060;-47
2022/09/20 01:18:38;;;;;;;0.30;0.20;;;;;;;;;;4146613;28;20058;-47
2022/09/20 01:20:41;;;;;;;0.10;0.10;;;;;;;;;;4147141;28;20049;-48
2022/09/20 01:22:54;;;;;;;0.32;0.10;;;;;;;;;;4150352;28;20072;-47
2022/09/20 01:25:04;;;;;;;0.25;0.10;;;;;;;;;;4163588;28;20065;-48
2022/09/20 01:27:39;;;;;;;0.10;0.10;;;;;;;;;;4146290;28;20161;-48
2022/09/20 01:29:52;;;;;;;0.38;0.10;;;;;;;;;;4144433;28;20108;-47
2022/09/20 01:31:55;;;;;;;0.60;0.55;;;;;;;;;;4146321;28;20552;-47
2022/09/20 01:34:10;;;;;;;0.20;0.10;;;;;;;;;;4141981;28;20061;-48
2022/09/20 01:36:17;;;;;;;0.20;0.20;;;;;;;;;;4177695;28;20452;-47
2022/09/20 01:38:25;;;;;;;0.40;0.10;;;;;;;;;;4160514;28;20429;-48
2022/09/20 01:40:46;;;;;;;0.38;0.20;;;;;;;;;;4161036;28;20460;-48
2022/09/20 01:43:28;;;;;;;0.30;0.10;;;;;;;;;;4144521;28;20104;-49
2022/09/20 01:45:31;;;;;;;0.10;0.10;;;;;;;;;;4150155;28;20072;-48
2022/09/20 01:47:39;;;;;;;0.43;0.13;;;;;;;;;;4161972;28;20111;-48
2022/09/20 01:49:55;;;;;;;0.10;0.10;;;;;;;;;;4144242;28;20107;-49
2022/09/20 01:52:30;;;;;;;0.22;0.20;;;;;;;;;;4146067;28;20054;-48
2022/09/20 01:54:51;;;;;;;0.10;0.10;;;;;;;;;;4144642;28;20210;-49
2022/09/20 01:57:01;;;;;;;0.20;0.10;;;;;;;;;;4144705;28;20123;-50
2022/09/20 01:59:40;;;;;;;0.20;0.20;;;;;;;;;;4159901;28;20460;-49
2022/09/20 02:01:56;;;;;;;0.10;0.10;;;;;;;;;;4160230;28;20583;-49
2022/09/20 02:04:18;;;;;;;0.38;0.20;;;;;;;;;;4158051;28;20057;-48
2022/09/20 02:06:22;;;;;;;0.22;0.22;;;;;;;;;;4144796;28;20100;-46
2022/09/20 02:08:50;;;;;;;0.30;0.17;;;;;;;;;;4143275;28;20178;-54
2022/09/20 02:10:59;;;;;;;0.10;0.10;;;;;;;;;;4158158;28;20050;-48
2022/09/20 02:13:09;;;;;;;0.10;0.10;;;;;;;;;;4161873;28;20115;-48
2022/09/20 02:15:36;;;;;;;0.28;0.10;;;;;;;;;;4145383;28;20057;-49
2022/09/20 02:18:02;;;;;;;0.20;0.20;;;;;;;;;;4163485;28;20049;-48
2022/09/20 02:20:43;;;;;;;0.08;0.08;;;;;;;;;;4162738;28;20111;-48
2022/09/20 02:23:11;;;;;;;0.25;0.20;;;;;;;;;;4162961;28;20099;-47
2022/09/20 02:25:25;;;;;;;0.40;0.15;;;;;;;;;;4162454;28;20119;-47
2022/09/20 02:27:36;;;;;;;0.30;0.10;;;;;;;;;;4163432;28;20061;-48
2022/09/20 02:29:46;;;;;;;0.35;0.20;;;;;;;;;;4163718;28;20069;-47
2022/09/20 02:31:59;;;;;;;;;;;;;;;;;;4164333;28;20054;-47
2022/09/20 02:34:16;;;;;;;0.10;0.10;;;;;;;;;;4163092;28;19925;-48
2022/09/20 02:36:29;;;;;;;0.10;0.10;;;;;;;;;;4146112;28;20543;-46
2022/09/20 02:38:51;;;;;;;0.30;0.13;;;;;;;;;;4163176;28;20550;-51
2022/09/20 02:40:55;;;;;;;0.10;0.10;;;;;;;;;;4163395;28;20060;-46
2022/09/20 02:43:24;;;;;;;0.10;0.10;;;;;;;;;;4163187;28;20534;-47
2022/09/20 02:45:34;;;;;;;0.10;0.10;;;;;;;;;;4163289;28;20076;-48
2022/09/20 02:47:39;;;;;;;0.13;0.00;;;;;;;;;;4161627;28;20179;-46
2022/09/20 02:49:50;;;;;;;0.50;0.13;;;;;;;;;;4161987;28;20455;-50
2022/09/20 02:52:04;;;;;;;0.10;0.10;;;;;;;;;;4147235;28;20065;-49
2022/09/20 02:54:17;;;;;;;0.10;0.10;;;;;;;;;;4160467;28;20574;-50
2022/09/20 02:56:54;;;;;;;0.17;0.10;;;;;;;;;;4163323;28;20106;-48
2022/09/20 02:59:13;;;;;;;0.17;0.10;;;;;;;;;;4128527;28;20058;-49
2022/09/20 03:01:20;;;;;;;0.10;0.10;;;;;;;;;;4162206;28;20096;-49
2022/09/20 03:03:33;;;;;;;0.10;0.10;;;;;;;;;;4162242;28;20076;-48
2022/09/20 03:05:53;;;;;;;0.10;0.10;;;;;;;;;;4161916;28;20147;-48
2022/09/20 03:08:09;;;;;;;0.50;0.20;;;;;;;;;;4149916;28;20501;-48
2022/09/20 03:10:37;;;;;;;0.10;0.10;;;;;;;;;;4145318;28;20425;-48
2022/09/20 03:13:22;;;;;;;0.10;0.10;;;;;;;;;;4147920;28;20107;-47
2022/09/20 03:15:54;;;;;;;0.10;0.10;;;;;;;;;;4149241;28;20084;-47
2022/09/20 03:18:13;;;;;;;0.55;0.10;;;;;;;;;;4161418;28;20057;-48
2022/09/20 03:20:34;;;;;;;0.10;0.10;;;;;;;;;;4161325;28;20054;-47
2022/09/20 03:22:40;;;;;;;0.20;0.20;;;;;;;;;;4161327;28;20433;-50
2022/09/20 03:25:06;;;;;;;0.20;0.13;;;;;;;;;;4161973;28;20058;-50
2022/09/20 03:27:45;;;;;;;0.20;0.10;;;;;;;;;;4161513;28;20439;-48
2022/09/20 03:30:02;;;;;;;0.17;0.08;;;;;;;;;;4144385;28;20057;-48
2022/09/20 03:32:42;;;;;;;0.95;0.20;;;;;;;;;;4146778;28;20054;-47
2022/09/20 03:35:17;;;;;;;0.10;0.10;;;;;;;;;;4112344;28;20161;-47
2022/09/20 03:37:33;;;;;;;0.20;0.20;;;;;;;;;;4112247;28;20106;-47
2022/09/20 03:40:08;;;;;;;0.25;0.20;;;;;;;;;;4140015;28;20452;-47
2022/09/20 03:42:16;;;;;;;0.63;0.17;;;;;;;;;;4162788;28;20115;-48
2022/09/20 03:44:26;;;;;;;0.20;0.20;;;;;;;;;;4162875;28;20115;-48
2022/09/20 03:46:41;;;;;;;0.22;0.10;;;;;;;;;;4162529;28;20087;-48
2022/09/20 03:48:53;;;;;;;0.40;0.20;;;;;;;;;;4160823;28;20057;-48
2022/09/20 03:51:28;;;;;;;0.10;0.10;;;;;;;;;;4162504;28;20049;-51
2022/09/20 03:53:56;;;;;;;0.10;0.10;;;;;;;;;;4145490;28;20611;-50
2022/09/20 03:56:05;;;;;;;0.10;0.10;;;;;;;;;;4149583;28;20428;-49
2022/09/20 03:58:44;;;;;;;0.30;0.13;;;;;;;;;;4146346;28;20335;-50
2022/09/20 04:00:51;;;;;;;0.43;0.17;;;;;;;;;;4145018;28;20058;-49
2022/09/20 04:03:13;;;;;;;0.10;0.10;;;;;;;;;;4165717;28;20455;-47
2022/09/20 04:05:17;;;;;;;0.60;0.20;;;;;;;;;;4161074;28;20060;-49
2022/09/20 04:07:27;;;;;;;0.40;0.05;;;;;;;;;;4160852;28;20053;-48
2022/09/20 04:09:38;;;;;;;0.10;0.10;;;;;;;;;;4146275;28;20391;-47
2022/09/20 04:11:48;;;;;;;0.25;0.15;;;;;;;;;;4161262;28;20052;-49
2022/09/20 04:14:13;;;;;;;0.43;0.17;;;;;;;;;;4152360;28;20390;-49
2022/09/20 04:16:36;;;;;;;0.20;0.10;;;;;;;;;;4144994;28;20108;-49
2022/09/20 04:19:00;;;;;;;0.32;0.10;;;;;;;;;;4156579;28;20479;-49
2022/09/20 04:21:14;;;;;;;0.00;0.00;;;;;;;;;;4161200;28;20412;-49
2022/09/20 04:23:38;;;;;;;0.20;0.20;;;;;;;;;;4153970;28;20049;-48
2022/09/20 04:25:42;;;;;;;0.15;0.10;;;;;;;;;;4161457;28;20338;-49
2022/09/20 04:27:54;;;;;;;0.20;0.20;;;;;;;;;;4161068;28;20057;-47
2022/09/20 04:30:19;;;;;;;0.28;0.17;;;;;;;;;;4144854;28;20062;-49
2022/09/20 04:32:42;;;;;;;0.20;0.17;;;;;;;;;;4162855;28;20528;-48
2022/09/20 04:37:21;;;;;;;0.10;0.10;;;;;;;;;;4150344;28;20472;-50
2022/09/20 04:39:35;;;;;;;0.77;0.10;;;;;;;;;;4147954;28;20452;-49
2022/09/20 04:41:48;;;;;;;0.20;0.10;;;;;;;;;;4135510;28;20076;-52
2022/09/20 04:44:09;;;;;;;0.13;0.05;;;;;;;;;;4163761;28;20378;-48
2022/09/20 04:46:35;;;;;;;0.30;0.30;;;;;;;;;;4148966;28;20104;-49
2022/09/20 04:48:59;;;;;;;0.43;0.20;;;;;;;;;;4159279;28;20057;-49
2022/09/20 04:51:39;;;;;;;0.10;0.10;;;;;;;;;;4159439;28;20057;-49
2022/09/20 04:54:22;;;;;;;0.10;0.10;;;;;;;;;;4160756;28;20519;-50
2022/09/20 04:57:01;;;;;;;0.13;0.05;;;;;;;;;;4165133;28;20054;-49
2022/09/20 04:59:07;;;;;;;0.15;0.10;;;;;;;;;;4164696;28;20583;-50
2022/09/20 05:01:15;;;;;;;0.10;0.10;;;;;;;;;;4154670;28;20053;-47
2022/09/20 05:03:24;;;;;;;0.10;0.10;;;;;;;;;;4154030;28;20111;-47
2022/09/20 05:05:47;;;;;;;0.20;0.10;;;;;;;;;;4161509;28;20567;-47
2022/09/20 05:07:57;;;;;;;0.00;0.00;;;;;;;;;;4162618;28;20095;-47
2022/09/20 05:10:23;;;;;;;0.25;0.20;;;;;;;;;;4161546;28;20057;-52
2022/09/20 05:12:53;;;;;;;0.20;0.10;;;;;;;;;;4161010;28;20069;-52
2022/09/20 05:15:16;;;;;;;0.52;0.10;;;;;;;;;;4162890;28;20441;-48
2022/09/20 05:17:43;;;;;;;0.20;0.10;;;;;;;;;;4160692;28;20049;-50
2022/09/20 05:20:09;;;;;;;0.10;0.10;;;;;;;;;;4151077;28;20491;-48
2022/09/20 05:22:30;;;;;;;0.40;0.10;;;;;;;;;;4162561;28;20459;-47
2022/09/20 05:24:39;;;;;;;0.10;0.10;;;;;;;;;;4157797;28;20111;-48
2022/09/20 05:27:01;;;;;;;0.23;0.13;;;;;;;;;;4162727;28;20107;-47
2022/09/20 05:29:21;;;;;;;0.10;0.10;;;;;;;;;;4162298;28;20061;-49
2022/09/20 05:31:41;;;;;;;;;;;;;;;;;;4163122;28;20068;-48
2022/09/20 05:33:59;;;;;;;0.32;0.10;;;;;;;;;;4161981;28;19992;-48
2022/09/20 05:36:11;;;;;;;0.68;0.25;;;;;;;;;;4145126;28;20061;-48
2022/09/20 05:38:42;;;;;;;0.08;0.00;;;;;;;;;;4162535;28;20057;-48
2022/09/20 05:41:02;;;;;;;0.10;0.10;;;;;;;;;;4162718;28;20087;-47
2022/09/20 05:43:29;;;;;;;0.85;0.15;;;;;;;;;;4162080;28;20068;-48
2022/09/20 05:45:51;;;;;;;0.13;0.10;;;;;;;;;;4144334;28;20062;-50
2022/09/20 05:48:09;;;;;;;0.25;0.10;;;;;;;;;;4149317;28;20049;-47
2022/09/20 05:50:35;;;;;;;0.10;0.10;;;;;;;;;;4160406;28;20523;-47
2022/09/20 05:52:47;;;;;;;0.20;0.20;;;;;;;;;;4146842;28;20108;-48
2022/09/20 05:55:06;;;;;;;0.38;0.15;;;;;;;;;;4160876;28;20062;-47
2022/09/20 05:57:27;;;;;;;0.10;0.10;;;;;;;;;;4161129;28;20102;-47
2022/09/20 05:59:52;;;;;;;0.10;0.10;;;;;;;;;;4144606;28;20413;-47
2022/09/20 06:02:19;;;;;;;0.13;0.10;;;;;;;;;;4154285;28;20057;-46
2022/09/20 06:04:25;;;;;;;0.20;0.10;;;;;;;;;;4156075;28;20547;-46
2022/09/20 06:06:57;;;;;;;0.70;0.22;;;;;;;;;;4157733;28;20122;-50
2022/09/20 06:09:25;;;;;;;0.10;0.10;;;;;;;;;;4156632;28;20111;-49
2022/09/20 06:11:52;;;;;;;0.10;0.10;;;;;;;;;;4161347;28;20053;-48
2022/09/20 06:14:03;;;;;;;0.10;0.10;;;;;;;;;;4166320;28;20049;-48
2022/09/20 06:16:06;;;;;;;0.10;0.10;;;;;;;;;;4158360;28;20527;-50
2022/09/20 06:18:25;;;;;;;0.20;0.20;;;;;;;;;;4158009;28;20137;-49
2022/09/20 06:20:48;;;;;;;0.15;0.10;;;;;;;;;;4153628;28;20052;-47
2022/09/20 06:22:53;;;;;;;0.10;0.10;;;;;;;;;;4152613;28;20516;-50
2022/09/20 06:25:00;;;;;;;0.10;0.10;;;;;;;;;;4166614;28;20516;-46
2022/09/20 06:27:07;;;;;;;0.10;0.10;;;;;;;;;;4152007;28;20107;-49
2022/09/20 06:29:11;;;;;;;0.00;0.00;;;;;;;;;;4148288;28;20441;-52
2022/09/20 06:31:12;;;;;;;0.38;0.20;;;;;;;;;;4152745;28;20060;-46
2022/09/20 06:33:17;;;;;;;0.20;0.10;;;;;;;;;;4152561;28;20053;-48
2022/09/20 06:35:21;;;;;;;0.35;0.10;;;;;;;;;;4144553;28;20103;-47
2022/09/20 06:42:30;;;;;;;0.10;0.00;;;;;;;;;;4143424;28;19928;-49
2022/09/20 06:44:32;;;;;;;0.00;0.00;;;;;;;;;;4134800;28;20104;-47
2022/09/20 06:46:35;;;;;;;0.25;0.10;;;;;;;;;;4139422;28;20057;-48
2022/09/20 06:48:38;;;;;;;0.10;0.10;;;;;;;;;;4133722;28;21690;-46
2022/09/20 06:50:44;;;;;;;0.55;0.10;;;;;;;;;;4140644;28;20057;-48
2022/09/20 06:52:46;;;;;;;0.90;0.10;;;;;;;;;;4134503;28;20061;-50
2022/09/20 06:54:50;;;;;;;2.90;0.20;;;;;;;;;;4141667;28;20143;-50
2022/09/20 06:56:52;;;;;;;1.83;0.30;;;;;;;;;;4139098;28;20050;-51
2022/09/20 06:58:54;;;;;;;0.32;0.10;;;;;;;;;;4145203;28;20103;-51
2022/09/20 07:00:55;;;;;;;1.95;0.10;;;;;;;;;;4130404;28;20058;-49
2022/09/20 07:02:56;;;;;;;1.30;0.32;;;;;;;;;;4129044;28;20115;-49
2022/09/20 07:04:58;;;;;;;0.10;0.10;;;;;;;;;;4141460;28;20115;-47
2022/09/20 07:07:04;;;;;;;0.45;0.15;;;;;;;;;;4146311;28;20068;-50
2022/09/20 07:09:05;;;;;;;0.00;0.00;;;;;;;;;;4139941;28;20135;-46
2022/09/20 07:11:12;;;;;;;0.20;0.10;;;;;;;;;;4139542;28;20058;-51
2022/09/20 07:13:13;;;;;;;1.80;0.10;;;;;;;;;;4135055;28;20103;-48
2022/09/20 07:15:15;;;;;;;2.63;0.20;;;;;;;;;;4130085;28;20143;-50
2022/09/20 07:17:17;;;;;;;2.53;0.10;;;;;;;;;;4134432;28;20122;-47
2022/09/20 07:19:18;;;;;;;2.28;0.10;;;;;;;;;;4143013;28;20061;-50
2022/09/20 07:21:20;;;;;;;0.10;0.10;;;;;;;;;;4137074;28;20142;-52
2022/09/20 07:23:21;;;;;;;0.30;0.20;;;;;;;;;;4138524;28;20126;-49
2022/09/20 07:25:22;;;;;;;0.30;0.10;;;;;;;;;;4137402;28;20551;-50
2022/09/20 07:27:24;;;;;;;0.30;0.10;;;;;;;;;;4128416;28;20107;-53
2022/09/20 07:29:26;;;;;;;1.85;0.20;;;;;;;;;;4126757;28;20058;-51
2022/09/20 07:31:28;;;;;;;0.52;0.15;;;;;;;;;;4120996;28;20225;-49
2022/09/20 07:33:29;;;;;;;0.73;0.20;;;;;;;;;;4131503;28;20614;-49
2022/09/20 07:35:30;;;;;;;1.25;0.25;;;;;;;;;;4134175;28;20096;-49
2022/09/20 07:37:31;;;;;;;0.63;0.20;;;;;;;;;;4140610;28;20433;-48
2022/09/20 07:39:33;;;;;;;0.45;0.10;;;;;;;;;;4137632;28;20499;-50
2022/09/20 07:41:34;;;;;;;0.70;0.10;;;;;;;;;;4138838;28;20061;-50
2022/09/20 07:43:35;;;;;;;0.20;0.10;;;;;;;;;;4140154;28;20057;-51
2022/09/20 07:45:38;;;;;;;0.10;0.10;;;;;;;;;;4138091;28;20134;-48
2022/09/20 07:47:40;;;;;;;1.70;0.30;;;;;;;;;;4130480;28;20197;-51
2022/09/20 07:49:42;;;;;;;0.10;0.10;;;;;;;;;;4130528;28;21227;-48
2022/09/20 07:51:43;;;;;;;1.20;0.30;;;;;;;;;;4127605;28;20104;-50
2022/09/20 07:53:44;;;;;;;1.45;0.10;;;;;;;;;;4136693;28;20061;-49
2022/09/20 07:56:17;;;;;;;2.75;0.20;;;;;;;;;;4133744;28;20057;-49
2022/09/20 07:58:18;;;;;;;0.95;0.13;;;;;;;;;;4133988;28;20123;-52
2022/09/20 08:00:19;;;;;;;0.10;0.10;;;;;;;;;;4138137;28;20057;-50
2022/09/20 08:02:20;;;;;;;0.60;0.13;;;;;;;;;;4135026;28;21388;-50
2022/09/20 08:04:21;;;;;;;0.30;0.10;;;;;;;;;;4135156;28;20648;-51
2022/09/20 08:06:22;;;;;;;0.20;0.10;;;;;;;;;;4140436;28;20065;-50
2022/09/20 08:08:24;;;;;;;0.65;0.20;;;;;;;;;;4138406;28;20050;-52
2022/09/20 08:10:25;;;;;;;0.10;0.10;;;;;;;;;;4136221;28;20409;-51
2022/09/20 08:12:26;;;;;;;0.00;0.00;;;;;;;;;;4144373;28;20508;-52
2022/09/20 08:14:28;;;;;;;0.35;0.20;;;;;;;;;;4146864;28;20102;-52
2022/09/20 08:16:30;;;;;;;0.70;0.10;;;;;;;;;;4145193;28;20115;-55
2022/09/20 08:18:33;;;;;;;0.40;0.20;;;;;;;;;;4145740;28;20442;-50
2022/09/20 08:20:36;;;;;;;2.63;0.25;;;;;;;;;;4145491;28;20101;-50
2022/09/20 08:22:40;;;;;;;0.30;0.17;;;;;;;;;;4135379;28;21604;-47
2022/09/20 08:24:43;;;;;;;5.38;0.25;;;;;;;;;;4133896;28;20061;-45
2022/09/20 08:26:44;;;;;;;0.50;0.20;;;;;;;;;;4135769;28;20453;-45
2022/09/20 08:28:46;;;;;;;3.20;0.20;;;;;;;;;;4129859;28;20057;-45
2022/09/20 08:30:47;;;;;;;0.40;0.20;;;;;;;;;;4129731;28;20045;-46
2022/09/20 08:32:49;;;;;;;1.38;0.20;;;;;;;;;;4137820;28;20497;-46
2022/09/20 08:34:50;;;;;;;0.20;0.20;;;;;;;;;;4140653;28;20061;-44
2022/09/20 08:36:55;;;;;;;0.10;0.10;;;;;;;;;;4142468;28;20049;-47
2022/09/20 08:38:56;;;;;;;0.70;0.28;;;;;;;;;;4138788;28;20057;-47
2022/09/20 08:41:09;;;;;;;0.73;0.30;;;;;;;;;;4135554;28;20053;-46
2022/09/20 08:43:10;;;;;;;2.95;0.13;;;;;;;;;;4138666;28;20127;-45
2022/09/20 08:45:18;;;;;;;2.38;0.30;;;;;;;;;;4133112;28;20065;-45
2022/09/20 08:47:31;;;;;;;0.93;0.30;;;;;;;;;;4127219;28;20529;-43
2022/09/20 08:49:32;;;;;;;0.10;0.10;;;;;;;;;;4139260;28;20119;-44
2022/09/20 08:51:37;;;;;;;1.38;0.22;;;;;;;;;;4130296;28;20045;-46
2022/09/20 08:53:44;;;;;;;0.82;0.22;;;;;;;;;;4140774;28;20102;-45
2022/09/20 08:55:45;;;;;;;1.60;0.20;;;;;;;;;;4138237;28;20065;-44
2022/09/20 08:57:48;;;;;;;2.65;0.20;;;;;;;;;;4143019;28;20107;-44
2022/09/20 08:59:49;;;;;;;0.10;0.10;;;;;;;;;;4135579;28;20317;-45
2022/09/20 09:01:52;;;;;;;0.45;0.20;;;;;;;;;;4128478;28;20163;-44
2022/09/20 09:04:14;;;;;;;1.75;0.17;;;;;;;;;;4112661;28;20532;-45
2022/09/20 09:06:19;;;;;;;0.85;0.35;;;;;;;;;;4129358;28;20053;-44
2022/09/20 09:08:43;;;;;;;2.45;0.20;;;;;;;;;;4119147;28;20394;-45
2022/09/20 09:10:51;;;;;;;0.60;0.30;;;;;;;;;;4132705;28;20053;-46
2022/09/20 09:12:53;;;;;;;1.77;0.30;;;;;;;;;;4138241;28;20440;-45
2022/09/20 09:15:04;;;;;;;0.77;0.20;;;;;;;;;;4139352;28;20057;-44
2022/09/20 09:17:07;;;;;;;0.68;0.30;;;;;;;;;;4118937;28;20057;-45
2022/09/20 09:19:26;;;;;;;0.20;0.20;;;;;;;;;;4140780;28;20065;-44
2022/09/20 09:21:28;;;;;;;0.55;0.20;;;;;;;;;;4141654;28;20095;-43
2022/09/20 09:23:40;;;;;;;0.88;0.20;;;;;;;;;;4138996;28;20143;-45
2022/09/20 09:25:41;;;;;;;0.50;0.40;;;;;;;;;;4140217;28;20065;-44
2022/09/20 09:28:06;;;;;;;1.13;0.20;;;;;;;;;;4143198;28;20100;-43
2022/09/20 09:30:19;;;;;;;2.05;0.20;;;;;;;;;;4133799;28;20062;-45
2022/09/20 09:32:27;;;;;;;0.20;0.20;;;;;;;;;;4132281;28;20060;-44
2022/09/20 09:34:34;;;;;;;0.25;0.17;;;;;;;;;;4126129;28;20057;-44
2022/09/20 09:36:42;;;;;;;1.75;0.20;;;;;;;;;;4131277;28;20057;-44
2022/09/20 09:38:45;;;;;;;0.30;0.28;;;;;;;;;;4145979;28;20061;-44
2022/09/20 09:41:00;;;;;;;1.02;0.28;;;;;;;;;;4135605;28;20135;-43
2022/09/20 09:43:03;;;;;;;1.05;0.28;;;;;;;;;;4136737;28;20079;-43
2022/09/20 09:45:12;;;;;;;0.65;0.30;;;;;;;;;;4126546;28;21251;-42
2022/09/20 09:47:26;;;;;;;3.40;0.20;;;;;;;;;;4126748;28;20489;-43
2022/09/20 09:49:35;;;;;;;1.65;0.40;;;;;;;;;;4144620;28;20045;-43
2022/09/20 09:51:37;;;;;;;1.17;0.40;;;;;;;;;;4146874;28;20058;-44
2022/09/20 09:53:39;;;;;;;1.02;0.40;;;;;;;;;;4122240;28;20475;-41
2022/09/20 09:55:50;;;;;;;1.45;0.85;;;;;;;;;;4140369;28;20053;-42
2022/09/20 09:58:34;;;;;;;0.75;0.30;;;;;;;;;;4135442;28;20115;-42
2022/09/20 10:00:41;;;;;;;2.55;0.47;;;;;;;;;;4140764;28;20052;-43
2022/09/20 10:02:55;;;;;;;1.50;0.30;;;;;;;;;;4141757;28;20783;-41
2022/09/20 10:05:19;;;;;;;0.60;0.35;;;;;;;;;;4140091;28;20057;-41
2022/09/20 10:07:20;;;;;;;0.77;0.30;;;;;;;;;;4142028;28;20057;-43
2022/09/20 10:09:28;;;;;;;1.55;0.50;;;;;;;;;;4142638;28;20099;-44
2022/09/20 10:11:55;;;;;;;0.22;0.20;;;;;;;;;;4142769;28;20056;-43
2022/09/20 10:14:14;;;;;;;1.75;0.40;;;;;;;;;;4140613;28;20112;-43
2022/09/20 10:16:32;;;;;;;0.63;0.40;;;;;;;;;;4136314;28;21443;-44
2022/09/20 10:18:52;;;;;;;1.17;0.30;;;;;;;;;;4137836;28;20053;-44
2022/09/20 10:21:16;;;;;;;2.42;0.55;;;;;;;;;;4145197;28;20053;-43
2022/09/20 10:23:32;;;;;;;1.80;0.30;;;;;;;;;;4132130;28;20049;-44
2022/09/20 10:25:39;;;;;;;0.30;0.20;;;;;;;;;;4136081;28;20467;-43
2022/09/20 10:28:02;;;;;;;2.50;0.30;;;;;;;;;;4142455;28;20485;-45
2022/09/20 10:30:18;;;;;;;2.10;0.28;;;;;;;;;;4145034;28;20146;-42
2022/09/20 10:32:42;;;;;;;0.52;0.30;;;;;;;;;;4140821;28;20495;-46
2022/09/20 10:34:52;;;;;;;1.33;0.30;;;;;;;;;;4131228;28;20544;-44
2022/09/20 10:36:56;;;;;;;0.63;0.30;;;;;;;;;;4133480;28;20064;-42
2022/09/20 10:39:05;;;;;;;0.40;0.35;;;;;;;;;;4138073;28;20069;-44
2022/09/20 10:44:06;;;;;;;1.85;0.40;;;;;;;;;;4124088;28;20434;-43
2022/09/20 10:46:30;;;;;;;0.60;0.40;;;;;;;;;;4139820;28;20067;-42
2022/09/20 10:48:42;;;;;;;1.45;0.30;;;;;;;;;;4139148;28;20762;-43
2022/09/20 10:50:58;;;;;;;2.63;0.35;;;;;;;;;;4139478;28;20123;-43
2022/09/20 10:53:26;;;;;;;0.43;0.40;;;;;;;;;;4145058;28;20131;-44
2022/09/20 10:55:39;;;;;;;2.85;0.40;;;;;;;;;;4125698;28;20124;-44
2022/09/20 10:58:02;;;;;;;0.60;0.50;;;;;;;;;;4143023;28;20087;-45
2022/09/20 11:00:24;;;;;;;0.80;0.50;;;;;;;;;;4132463;28;20124;-44
2022/09/20 11:02:38;;;;;;;1.88;0.40;;;;;;;;;;4137889;28;20111;-45
2022/09/20 11:04:54;;;;;;;1.48;0.40;;;;;;;;;;4135407;28;20746;-49
2022/09/20 11:07:13;;;;;;;2.35;0.47;;;;;;;;;;4145193;28;20069;-46
2022/09/20 11:09:19;;;;;;;0.50;0.35;;;;;;;;;;4136610;28;20058;-44
2022/09/20 11:11:29;;;;;;;0.30;0.20;;;;;;;;;;4140444;28;20119;-46
2022/09/20 11:13:39;;;;;;;1.35;0.57;;;;;;;;;;4134146;28;20057;-47
2022/09/20 11:15:46;;;;;;;0.65;0.40;;;;;;;;;;4129693;28;20061;-43
2022/09/20 11:18:00;;;;;;;2.92;0.35;;;;;;;;;;4136731;28;20108;-45
2022/09/20 11:20:06;;;;;;;0.80;0.30;;;;;;;;;;4129523;28;20509;-43
2022/09/20 11:22:17;;;;;;;2.92;0.25;;;;;;;;;;4123501;28;20054;-44
2022/09/20 11:24:24;;;;;;;0.60;0.32;;;;;;;;;;4135462;28;20099;-46
2022/09/20 11:26:37;;;;;;;0.38;0.30;;;;;;;;;;4141628;28;20449;-45
2022/09/20 11:28:42;;;;;;;3.10;0.40;;;;;;;;;;4133294;28;20139;-44
2022/09/20 11:30:59;;;;;;;0.32;0.20;;;;;;;;;;4129006;28;20116;-44
2022/09/20 11:33:19;;;;;;;2.25;0.40;;;;;;;;;;4130713;28;20626;-43
2022/09/20 11:35:28;;;;;;;0.60;0.20;;;;;;;;;;4137125;28;20060;-44
2022/09/20 11:37:33;;;;;;;0.85;0.30;;;;;;;;;;4139457;28;20061;-43
2022/09/20 11:39:39;;;;;;;0.10;0.10;;;;;;;;;;4133221;28;20219;-44
2022/09/20 11:41:41;;;;;;;1.15;0.28;;;;;;;;;;4140101;28;20095;-44
2022/09/20 11:43:44;;;;;;;0.68;0.20;;;;;;;;;;4141894;28;20057;-47
2022/09/20 11:45:47;;;;;;;1.48;0.47;;;;;;;;;;4131896;28;20061;-42
2022/09/20 11:47:56;;;;;;;0.70;0.30;;;;;;;;;;4137850;28;21375;-43
2022/09/20 11:50:28;;;;;;;0.55;0.30;;;;;;;;;;4118424;28;20114;-43
2022/09/20 11:52:35;;;;;;;3.70;0.20;;;;;;;;;;4134968;28;20058;-45
2022/09/20 11:54:53;;;;;;;0.20;0.13;;;;;;;;;;4126668;28;20671;-44
2022/09/20 11:56:56;;;;;;;0.32;0.32;;;;;;;;;;4126703;28;20155;-46
2022/09/20 11:58:59;;;;;;;0.43;0.30;;;;;;;;;;4108665;28;20053;-47
2022/09/20 12:01:01;;;;;;;1.15;0.28;;;;;;;;;;4125826;28;20049;-45
2022/09/20 12:03:05;;;;;;;1.15;0.30;;;;;;;;;;4131509;28;20394;-47
2022/09/20 12:05:28;;;;;;;0.73;0.20;;;;;;;;;;4132740;28;22084;-44
2022/09/20 12:07:40;;;;;;;2.10;0.20;;;;;;;;;;4130163;28;20062;-46
2022/09/20 12:09:44;;;;;;;0.82;0.30;;;;;;;;;;4129045;28;20064;-45
2022/09/20 12:11:45;;;;;;;0.25;0.17;;;;;;;;;;4132637;28;20056;-42
2022/09/20 12:13:56;;;;;;;0.35;0.30;;;;;;;;;;4129656;28;20484;-43
2022/09/20 12:16:01;;;;;;;0.43;0.30;;;;;;;;;;4132087;28;20630;-42
2022/09/20 12:18:07;;;;;;;0.43;0.20;;;;;;;;;;4128768;28;20487;-44
2022/09/20 12:20:33;;;;;;;0.43;0.30;;;;;;;;;;4117627;28;20066;-46
2022/09/20 12:22:34;;;;;;;0.60;0.30;;;;;;;;;;4128298;28;20340;-45
2022/09/20 12:24:40;;;;;;;0.77;0.25;;;;;;;;;;4135212;28;20068;-45
2022/09/20 12:26:42;;;;;;;0.80;0.20;;;;;;;;;;4131260;28;20064;-46
2022/09/20 12:28:49;;;;;;;0.32;0.20;;;;;;;;;;4114320;28;21871;-45
2022/09/20 12:31:30;;;;;;;0.38;0.10;;;;;;;;;;4129234;28;20057;-43
2022/09/20 12:34:01;;;;;;;0.73;0.25;;;;;;;;;;4126022;28;20911;-43
2022/09/20 12:36:15;;;;;;;4.15;0.43;;;;;;;;;;4132466;28;20061;-43
2022/09/20 12:38:19;;;;;;;0.35;0.20;;;;;;;;;;4139729;28;20058;-44
2022/09/20 12:40:20;;;;;;;1.85;0.25;;;;;;;;;;4135212;28;20049;-43
2022/09/20 12:42:30;;;;;;;0.52;0.20;;;;;;;;;;4136535;28;20054;-45
2022/09/20 12:44:42;;;;;;;0.20;0.10;;;;;;;;;;4128624;28;20108;-46
2022/09/20 12:46:54;;;;;;;0.30;0.20;;;;;;;;;;4123992;28;20065;-44
2022/09/20 12:52:49;;;;;;;1.77;0.32;;;;;;;;;;4131509;28;20220;-47
2022/09/20 12:54:07;;;;;;;;;;;;;;;;;;4131410;28;20064;-48
2022/09/20 12:56:15;;;;;;;0.17;0.10;;;;;;;;;;4137125;28;19956;-43
2022/09/20 12:58:21;;;;;;;0.82;0.20;;;;;;;;;;4122761;28;20061;-46
2022/09/20 13:00:30;;;;;;;3.10;0.30;;;;;;;;;;4129308;28;20058;-45
2022/09/20 13:02:43;;;;;;;1.95;0.20;;;;;;;;;;4135605;28;20547;-47
2022/09/20 13:04:54;;;;;;;1.13;0.20;;;;;;;;;;4134218;28;20061;-45
2022/09/20 13:07:33;;;;;;;1.30;0.20;;;;;;;;;;4137653;28;20053;-46
2022/09/20 13:09:34;;;;;;;0.80;0.30;;;;;;;;;;4135539;28;20681;-46
2022/09/20 13:11:39;;;;;;;0.47;0.20;;;;;;;;;;4135558;28;20690;-50
2022/09/20 13:14:27;;;;;;;0.30;0.15;;;;;;;;;;4131692;28;22731;-45
2022/09/20 13:16:32;;;;;;;0.10;0.10;;;;;;;;;;4136607;28;20103;-47
2022/09/20 13:18:34;;;;;;;0.40;0.20;;;;;;;;;;4138119;28;20732;-47
2022/09/20 13:20:35;;;;;;;0.38;0.20;;;;;;;;;;4141294;28;20057;-46
2022/09/20 13:22:42;;;;;;;0.28;0.10;;;;;;;;;;4131335;28;20061;-47